Time,TemperatureF,DewpointF,PressureIn,WindDirection,WindDirectionDegrees,WindSpeedMPH,WindSpeedGustMPH,Humidity,HourlyPrecipIn,Conditions,Clouds,dailyrainin,SoftwareType,DateUTC
2017-09-24 00:09:00,68.4,63.0,30.06,SSE,165,0.0,0.0,83,0.00,,,0.00,weatherlink.com 1.10,2017-09-24 04:09:00,
2017-09-24 00:24:00,67.5,63.0,30.07,SSE,165,0.0,0.0,85,0.00,,,0.00,weatherlink.com 1.10,2017-09-24 04:24:00,
2017-09-24 00:39:00,67.3,63.0,30.07,SSE,165,0.0,0.0,86,0.00,,,0.00,weatherlink.com 1.10,2017-09-24 04:39:00,
2017-09-24 00:54:00,67.4,64.0,30.07,SSE,165,0.0,0.0,87,0.00,,,0.00,weatherlink.com 1.10,2017-09-24 04:54:00,
2017-09-24 01:09:00,67.4,64.0,30.07,SSE,165,0.0,0.0,87,0.00,,,0.00,weatherlink.com 1.10,2017-09-24 05:09:00,
2017-09-24 01:24:00,67.3,63.0,30.06,SSE,165,0.0,0.0,87,0.00,,,0.00,weatherlink.com 1.10,2017-09-24 05:24:00,
2017-09-24 01:39:00,66.8,63.0,30.06,SSE,165,0.0,0.0,87,0.00,,,0.00,weatherlink.com 1.10,2017-09-24 05:39:00,
2017-09-24 01:54:00,66.4,63.0,30.07,SSE,165,0.0,0.0,89,0.00,,,0.00,weatherlink.com 1.10,2017-09-24 05:54:00,
2017-09-24 02:09:00,65.6,63.0,30.07,SSE,165,0.0,0.0,90,0.00,,,0.00,weatherlink.com 1.10,2017-09-24 06:09:00,
2017-09-24 02:24:00,65.1,63.0,30.07,SSE,165,0.0,0.0,91,0.00,,,0.00,weatherlink.com 1.10,2017-09-24 06:24:00,
2017-09-24 02:39:00,65.0,62.0,30.07,SSE,165,0.0,0.0,91,0.00,,,0.00,weatherlink.com 1.10,2017-09-24 06:39:00,
2017-09-24 02:54:00,65.0,62.0,30.07,SSE,165,0.0,0.0,90,0.00,,,0.00,weatherlink.com 1.10,2017-09-24 06:54:00,
2017-09-24 03:09:00,64.5,62.0,30.07,SSE,165,0.0,0.0,90,0.00,,,0.00,weatherlink.com 1.10,2017-09-24 07:09:00,
2017-09-24 03:24:00,64.4,62.0,30.07,SSE,165,0.0,0.0,91,0.00,,,0.00,weatherlink.com 1.10,2017-09-24 07:24:00,
2017-09-24 03:39:00,63.9,61.0,30.07,SSE,165,0.0,0.0,91,0.00,,,0.00,weatherlink.com 1.10,2017-09-24 07:39:00,
2017-09-24 03:54:00,63.8,62.0,30.07,SSE,165,0.0,0.0,92,0.00,,,0.00,weatherlink.com 1.10,2017-09-24 07:54:00,
2017-09-24 04:09:00,63.5,61.0,30.08,SSE,165,0.0,0.0,92,0.00,,,0.00,weatherlink.com 1.10,2017-09-24 08:09:00,
2017-09-24 04:24:00,62.9,61.0,30.08,SSE,165,0.0,0.0,92,0.00,,,0.00,weatherlink.com 1.10,2017-09-24 08:24:00,
2017-09-24 04:39:00,62.2,60.0,30.08,SSE,165,0.0,0.0,92,0.00,,,0.00,weatherlink.com 1.10,2017-09-24 08:39:00,
2017-09-24 04:55:00,62.0,60.0,30.08,SSE,165,0.0,0.0,92,0.00,,,0.00,weatherlink.com 1.10,2017-09-24 08:55:00,
2017-09-24 05:09:00,62.2,60.0,30.08,SSE,165,0.0,0.0,93,0.00,,,0.00,weatherlink.com 1.10,2017-09-24 09:09:00,
2017-09-24 05:24:00,62.3,60.0,30.08,SSE,165,0.0,0.0,93,0.00,,,0.00,weatherlink.com 1.10,2017-09-24 09:24:00,
2017-09-24 05:40:00,62.2,60.0,30.08,SSE,165,0.0,0.0,93,0.00,,,0.00,weatherlink.com 1.10,2017-09-24 09:40:00,
2017-09-24 05:55:00,62.2,60.0,30.08,SSE,165,0.0,0.0,93,0.00,,,0.00,weatherlink.com 1.10,2017-09-24 09:55:00,
2017-09-24 06:09:00,62.4,60.0,30.08,SSE,165,0.0,0.0,92,0.00,,,0.00,weatherlink.com 1.10,2017-09-24 10:09:00,
2017-09-24 06:25:00,62.7,60.0,30.09,SSE,165,0.0,0.0,92,0.00,,,0.00,weatherlink.com 1.10,2017-09-24 10:25:00,
2017-09-24 06:40:00,62.4,60.0,30.09,SSE,165,0.0,0.0,92,0.00,,,0.00,weatherlink.com 1.10,2017-09-24 10:40:00,
2017-09-24 06:55:00,62.7,60.0,30.09,SSE,165,0.0,0.0,92,0.00,,,0.00,weatherlink.com 1.10,2017-09-24 10:55:00,
2017-09-24 07:10:00,62.2,60.0,30.09,SSE,165,0.0,0.0,92,0.00,,,0.00,weatherlink.com 1.10,2017-09-24 11:10:00,
2017-09-24 07:25:00,61.7,59.0,30.09,SSE,165,0.0,0.0,91,0.00,,,0.00,weatherlink.com 1.10,2017-09-24 11:25:00,
2017-09-24 07:40:00,61.5,59.0,30.10,SSE,165,0.0,0.0,92,0.00,,,0.00,weatherlink.com 1.10,2017-09-24 11:40:00,
2017-09-24 07:55:00,61.8,60.0,30.10,SSE,165,0.0,0.0,92,0.00,,,0.00,weatherlink.com 1.10,2017-09-24 11:55:00,
2017-09-24 08:10:00,63.0,61.0,30.10,SSE,165,0.0,0.0,92,0.00,,,0.00,weatherlink.com 1.10,2017-09-24 12:10:00,
2017-09-24 08:25:00,64.5,61.0,30.10,SSE,165,0.0,0.0,89,0.00,,,0.00,weatherlink.com 1.10,2017-09-24 12:25:00,
2017-09-24 08:40:00,67.6,63.0,30.11,SSE,165,0.0,0.0,86,0.00,,,0.00,weatherlink.com 1.10,2017-09-24 12:40:00,
2017-09-24 08:55:00,69.4,64.0,30.11,SSE,165,0.0,1.0,83,0.00,,,0.00,weatherlink.com 1.10,2017-09-24 12:55:00,
2017-09-24 09:10:00,70.7,64.0,30.11,SSE,162,1.0,3.0,79,0.00,,,0.00,weatherlink.com 1.10,2017-09-24 13:10:00,
2017-09-24 09:25:00,72.4,64.0,30.11,SE,134,1.0,3.0,75,0.00,,,0.00,weatherlink.com 1.10,2017-09-24 13:25:00,
2017-09-24 09:40:00,74.2,65.0,30.11,SE,134,0.0,2.0,73,0.00,,,0.00,weatherlink.com 1.10,2017-09-24 13:40:00,
2017-09-24 09:55:00,76.0,66.0,30.11,SE,135,0.0,3.0,72,0.00,,,0.00,weatherlink.com 1.10,2017-09-24 13:55:00,
2017-09-24 10:10:00,78.6,66.0,30.10,SE,137,0.0,3.0,66,0.00,,,0.00,weatherlink.com 1.10,2017-09-24 14:10:00,
2017-09-24 10:25:00,79.6,66.0,30.10,SE,125,2.0,5.0,64,0.00,,,0.00,weatherlink.com 1.10,2017-09-24 14:25:00,